createdAt,value
2023-02-05T00:00:21.919Z,12.6
2023-02-05T00:06:41.993Z,12.6
2023-02-05T00:13:04.947Z,20.6
2023-02-05T00:19:24.992Z,20.6
2023-02-05T00:25:47.913Z,8.9
2023-02-05T00:32:08.008Z,8.9
2023-02-05T00:38:30.957Z,13.9
2023-02-05T00:44:51.056Z,13.9
2023-02-05T00:51:13.942Z,9.8
2023-02-05T00:57:33.995Z,9.8
2023-02-05T01:03:56.984Z,18.4
2023-02-05T01:10:17.003Z,18.4
2023-02-05T01:16:39.954Z,16.6
2023-02-05T01:22:59.985Z,16.6
2023-02-05T01:29:23.375Z,21.6
2023-02-05T01:35:43.000Z,21.6
2023-02-05T01:42:05.983Z,30.7
2023-02-05T01:48:26.008Z,30.7
2023-02-05T01:54:48.990Z,11.2
2023-02-05T02:01:08.976Z,11.2
2023-02-05T02:07:31.978Z,16.7
2023-02-05T02:13:51.936Z,16.7
2023-02-05T02:20:14.936Z,18.4
2023-02-05T02:26:34.947Z,18.4
2023-02-05T02:32:58.017Z,6.6
2023-02-05T02:39:17.956Z,6.6
2023-02-05T02:45:40.983Z,12.1
2023-02-05T02:52:00.954Z,12.1
2023-02-05T02:58:24.045Z,9.9
2023-02-05T03:04:44.023Z,9.9
2023-02-05T03:11:07.001Z,8.6
2023-02-05T03:17:27.038Z,8.6
2023-02-05T03:23:50.210Z,12.9
2023-02-05T03:30:09.959Z,12.9
2023-02-05T03:36:32.960Z,16.4
2023-02-05T03:42:52.931Z,16.4
2023-02-05T03:49:15.976Z,15.6
2023-02-05T03:55:37.696Z,15.6
2023-02-05T04:02:01.007Z,13.3
2023-02-05T04:08:20.970Z,13.3
2023-02-05T04:31:08.948Z,34
2023-02-05T04:37:31.933Z,34
2023-02-05T04:43:51.923Z,34
2023-02-05T04:50:14.929Z,13.1
2023-02-05T04:56:34.950Z,13.1
2023-02-05T05:02:57.906Z,32.9
2023-02-05T05:09:18.101Z,32.9
2023-02-05T05:15:40.943Z,33.9
2023-02-05T05:22:00.994Z,33.9
2023-02-05T05:28:24.013Z,16.1
2023-02-05T05:34:43.958Z,16.1
2023-02-05T05:41:06.993Z,15.7
2023-02-05T05:47:26.943Z,15.7
2023-02-05T05:53:49.902Z,9.6
2023-02-05T06:00:10.016Z,9.6
2023-02-05T06:06:32.995Z,17.9
2023-02-05T06:12:52.978Z,17.9
2023-02-05T06:19:15.924Z,10.4
2023-02-05T06:25:36.182Z,10.4
2023-02-05T06:31:59.051Z,8.9
2023-02-05T06:38:18.958Z,8.9
2023-02-05T06:44:41.939Z,8.9
2023-02-05T06:51:01.962Z,8.9
2023-02-05T06:57:24.905Z,13
2023-02-05T07:03:45.217Z,13
2023-02-05T07:10:07.993Z,6
2023-02-05T07:16:27.960Z,6
2023-02-05T07:22:51.053Z,10.6
2023-02-05T07:29:10.941Z,10.6
2023-02-05T07:35:34.235Z,16.1
2023-02-05T07:41:54.054Z,16.1
2023-02-05T07:48:16.955Z,10.8
2023-02-05T07:54:37.030Z,10.8
2023-02-05T08:00:59.983Z,8.4
2023-02-05T08:07:20.002Z,8.4
2023-02-05T08:13:42.963Z,18
2023-02-05T08:20:02.969Z,18
2023-02-05T08:26:25.959Z,16.5
2023-02-05T08:32:45.928Z,16.5
2023-02-05T08:39:10.390Z,19.4
2023-02-05T08:45:30.307Z,19.4
2023-02-05T08:51:53.335Z,36.2
2023-02-05T08:58:12.989Z,36.2
2023-02-05T09:04:35.989Z,14.4
2023-02-05T09:10:55.988Z,14.4
2023-02-05T09:17:18.974Z,16
2023-02-05T09:40:22.319Z,13.6
2023-02-05T09:46:26.956Z,13.6
2023-02-05T09:52:50.003Z,14.3
2023-02-05T09:59:10.050Z,14.3
2023-02-05T10:05:33.300Z,4
2023-02-05T10:11:53.021Z,4
2023-02-05T10:18:16.022Z,3.2
2023-02-05T10:24:36.020Z,3.2
2023-02-05T10:30:59.107Z,1.4
2023-02-05T10:37:19.028Z,1.4
2023-02-05T10:43:41.961Z,3.2
2023-02-05T10:50:01.981Z,3.2
2023-02-05T10:56:24.978Z,2.2
2023-02-05T11:02:44.961Z,2.2
2023-02-05T11:09:08.048Z,8.2
2023-02-05T11:15:28.022Z,8.2
2023-02-05T11:21:50.968Z,1.6
2023-02-05T11:28:11.349Z,1.6
2023-02-05T11:34:34.066Z,4
2023-02-05T11:40:53.938Z,4
2023-02-05T11:47:17.066Z,6.3
2023-02-05T11:53:37.062Z,6.3
2023-02-05T12:00:00.002Z,7.6
2023-02-05T12:06:19.923Z,7.6
2023-02-05T12:12:43.004Z,5.1
2023-02-05T12:19:03.087Z,5.1
2023-02-05T12:25:25.991Z,2.2
2023-02-05T12:31:46.073Z,2.2
2023-02-05T12:38:08.988Z,6.8
2023-02-05T12:44:30.276Z,6.8
2023-02-05T12:50:52.021Z,6.9
2023-02-05T12:57:11.939Z,6.9
2023-02-05T13:03:35.024Z,4.5
2023-02-05T13:09:55.018Z,4.5
2023-02-05T13:16:18.072Z,5.1
2023-02-05T13:22:38.083Z,5.1
2023-02-05T13:29:01.066Z,7.2
2023-02-05T13:35:21.026Z,7.2
2023-02-05T13:41:44.041Z,6.3
2023-02-05T13:48:04.438Z,6.3
2023-02-05T13:54:27.058Z,2.4
2023-02-05T14:00:47.002Z,2.4
2023-02-05T14:07:10.019Z,13.4
2023-02-05T14:13:29.966Z,13.4
2023-02-05T14:19:52.977Z,4.1
2023-02-05T14:26:12.997Z,4.1
2023-02-05T14:49:18.874Z,12.9
2023-02-05T14:55:41.894Z,2.8
2023-02-05T15:02:01.939Z,2.8
2023-02-05T15:08:24.965Z,3.8
2023-02-05T15:14:44.956Z,3.8
2023-02-05T15:21:08.114Z,2.4
2023-02-05T15:27:28.047Z,2.4
2023-02-05T15:33:51.021Z,2.6
2023-02-05T15:40:11.084Z,2.6
2023-02-05T15:46:34.165Z,0.3
2023-02-05T15:52:54.013Z,0.3
2023-02-05T15:59:16.966Z,0.7
2023-02-05T16:05:37.354Z,0.7
2023-02-05T16:11:59.970Z,3.2
2023-02-05T16:18:19.945Z,3.2
2023-02-05T16:24:43.090Z,1.4
2023-02-05T16:31:03.148Z,1.4
2023-02-05T16:37:26.090Z,0.7
2023-02-05T16:43:46.031Z,0.7
2023-02-05T16:50:08.953Z,1.9
2023-02-05T16:56:29.093Z,1.9
2023-02-05T17:02:51.928Z,1.8
2023-02-05T17:09:12.330Z,1.8
2023-02-05T17:15:34.972Z,9.8
2023-02-05T17:21:54.983Z,9.8
2023-02-05T17:28:17.968Z,1.5
2023-02-05T17:34:37.988Z,1.5
2023-02-05T17:41:01.094Z,2.4
2023-02-05T17:47:21.086Z,2.4
2023-02-05T17:53:43.949Z,15.7
2023-02-05T18:00:04.019Z,15.7
2023-02-05T18:06:26.961Z,1.9
2023-02-05T18:12:46.965Z,1.9
2023-02-05T18:19:10.040Z,2.8
2023-02-05T18:25:29.933Z,2.8
2023-02-05T18:31:53.014Z,6.6
2023-02-05T18:38:13.033Z,6.6
2023-02-05T18:44:35.993Z,10
2023-02-05T18:50:55.970Z,10
2023-02-05T18:57:18.951Z,13.8
2023-02-05T19:03:39.028Z,13.8
2023-02-05T19:10:01.925Z,23
2023-02-05T19:16:21.981Z,23
2023-02-05T19:22:45.211Z,11.6
2023-02-05T19:29:05.009Z,11.6
2023-02-05T19:35:33.981Z,15.3
2023-02-05T19:41:47.942Z,15.3
2023-02-05T19:57:39.799Z,45.2
2023-02-05T20:03:59.975Z,45.2
2023-02-05T20:10:23.183Z,45.7
2023-02-05T20:16:43.013Z,45.7
2023-02-05T20:23:05.975Z,10.4
2023-02-05T20:29:25.998Z,10.4
2023-02-05T20:35:50.968Z,10.9
2023-02-05T20:42:10.912Z,10.9
2023-02-05T20:48:34.885Z,1.7
2023-02-05T20:54:55.940Z,1.7
2023-02-05T21:01:20.150Z,15.1
2023-02-05T21:07:40.987Z,15.1
2023-02-05T21:14:03.989Z,5.2
2023-02-05T21:20:24.060Z,5.2
2023-02-05T21:26:46.938Z,13.6
2023-02-05T21:33:07.068Z,13.6
2023-02-05T21:39:30.038Z,9.9
2023-02-05T21:45:49.973Z,9.9
2023-02-05T21:52:13.010Z,28.1
2023-02-05T21:58:32.907Z,28.1
2023-02-05T22:04:56.016Z,10.4
2023-02-05T22:11:16.056Z,10.4
2023-02-05T22:17:38.977Z,1.1
2023-02-05T22:23:59.055Z,1.1
2023-02-05T22:30:22.048Z,15.4
2023-02-05T22:36:41.960Z,15.4
2023-02-05T22:43:05.022Z,1.8
2023-02-05T22:49:24.975Z,1.8
2023-02-05T22:55:48.035Z,1.8
2023-02-05T23:02:08.027Z,1.8
2023-02-05T23:25:04.912Z,10.6
2023-02-05T23:31:24.969Z,10.6
2023-02-05T23:37:47.921Z,10.6
2023-02-05T23:44:08.112Z,10.6
2023-02-05T23:50:30.959Z,1.9
2023-02-05T23:56:50.974Z,1.9
